sensor_id;sensor_type;location;lat;lon;timestamp;P1;durP1;ratioP1;P2;durP2;ratioP2
13973;SDS011;7060;43.770;4.008;2023-12-28T00:00:07;79.03;;;47.57;;
13973;SDS011;7060;43.770;4.008;2023-12-28T00:02:37;54.33;;;31.87;;
13973;SDS011;7060;43.770;4.008;2023-12-28T00:05:05;62.57;;;36.43;;
13973;SDS011;7060;43.770;4.008;2023-12-28T00:07:35;46.37;;;26.30;;
13973;SDS011;7060;43.770;4.008;2023-12-28T00:10:04;32.20;;;18.73;;
13973;SDS011;7060;43.770;4.008;2023-12-28T00:12:33;17.10;;;10.73;;
13973;SDS011;7060;43.770;4.008;2023-12-28T00:15:02;24.40;;;17.07;;
13973;SDS011;7060;43.770;4.008;2023-12-28T00:17:33;28.33;;;17.93;;
13973;SDS011;7060;43.770;4.008;2023-12-28T00:20:05;30.90;;;19.77;;
13973;SDS011;7060;43.770;4.008;2023-12-28T00:22:35;25.47;;;16.33;;
13973;SDS011;7060;43.770;4.008;2023-12-28T00:25:11;30.63;;;15.30;;
13973;SDS011;7060;43.770;4.008;2023-12-28T00:27:39;36.57;;;23.93;;
13973;SDS011;7060;43.770;4.008;2023-12-28T00:30:09;22.93;;;15.13;;
13973;SDS011;7060;43.770;4.008;2023-12-28T00:32:39;28.57;;;17.70;;
13973;SDS011;7060;43.770;4.008;2023-12-28T00:35:10;28.17;;;15.30;;
13973;SDS011;7060;43.770;4.008;2023-12-28T00:37:39;19.57;;;14.43;;
13973;SDS011;7060;43.770;4.008;2023-12-28T00:40:08;24.83;;;15.73;;
13973;SDS011;7060;43.770;4.008;2023-12-28T00:42:38;21.67;;;15.13;;
13973;SDS011;7060;43.770;4.008;2023-12-28T00:45:08;20.67;;;13.60;;
13973;SDS011;7060;43.770;4.008;2023-12-28T00:47:37;19.03;;;13.07;;
13973;SDS011;7060;43.770;4.008;2023-12-28T00:50:08;19.60;;;14.23;;
13973;SDS011;7060;43.770;4.008;2023-12-28T00:52:38;26.40;;;14.53;;
13973;SDS011;7060;43.770;4.008;2023-12-28T00:55:07;25.93;;;16.83;;
13973;SDS011;7060;43.770;4.008;2023-12-28T00:57:36;19.53;;;15.37;;
13973;SDS011;7060;43.770;4.008;2023-12-28T01:00:05;19.40;;;14.27;;
13973;SDS011;7060;43.770;4.008;2023-12-28T01:02:35;21.83;;;15.93;;
13973;SDS011;7060;43.770;4.008;2023-12-28T01:05:04;18.43;;;12.77;;
13973;SDS011;7060;43.770;4.008;2023-12-28T01:07:34;23.23;;;14.23;;
13973;SDS011;7060;43.770;4.008;2023-12-28T01:10:05;20.97;;;13.10;;
13973;SDS011;7060;43.770;4.008;2023-12-28T01:12:34;18.30;;;13.13;;
13973;SDS011;7060;43.770;4.008;2023-12-28T01:15:03;15.83;;;12.93;;
13973;SDS011;7060;43.770;4.008;2023-12-28T01:17:34;19.97;;;13.53;;
13973;SDS011;7060;43.770;4.008;2023-12-28T01:20:04;25.87;;;18.20;;
13973;SDS011;7060;43.770;4.008;2023-12-28T01:22:35;22.93;;;16.10;;
13973;SDS011;7060;43.770;4.008;2023-12-28T01:25:04;28.60;;;18.13;;
13973;SDS011;7060;43.770;4.008;2023-12-28T01:27:33;22.27;;;14.47;;
13973;SDS011;7060;43.770;4.008;2023-12-28T01:30:02;18.47;;;11.30;;
13973;SDS011;7060;43.770;4.008;2023-12-28T01:32:31;12.57;;;10.30;;
13973;SDS011;7060;43.770;4.008;2023-12-28T01:35:00;14.90;;;10.93;;
13973;SDS011;7060;43.770;4.008;2023-12-28T01:37:29;13.03;;;9.37;;
13973;SDS011;7060;43.770;4.008;2023-12-28T01:40:01;16.43;;;10.23;;
13973;SDS011;7060;43.770;4.008;2023-12-28T01:42:31;15.70;;;10.53;;
13973;SDS011;7060;43.770;4.008;2023-12-28T01:44:59;12.30;;;9.30;;
13973;SDS011;7060;43.770;4.008;2023-12-28T01:47:28;12.67;;;8.20;;
13973;SDS011;7060;43.770;4.008;2023-12-28T01:49:58;12.43;;;9.00;;
13973;SDS011;7060;43.770;4.008;2023-12-28T01:52:28;12.97;;;8.63;;
13973;SDS011;7060;43.770;4.008;2023-12-28T01:54:57;11.83;;;8.03;;
13973;SDS011;7060;43.770;4.008;2023-12-28T01:57:28;14.53;;;8.03;;
13973;SDS011;7060;43.770;4.008;2023-12-28T01:59:57;11.30;;;7.57;;
13973;SDS011;7060;43.770;4.008;2023-12-28T02:02:38;13.63;;;7.30;;
13973;SDS011;7060;43.770;4.008;2023-12-28T02:05:09;11.40;;;7.57;;
13973;SDS011;7060;43.770;4.008;2023-12-28T02:07:39;11.73;;;7.50;;
13973;SDS011;7060;43.770;4.008;2023-12-28T02:10:08;11.10;;;7.43;;
13973;SDS011;7060;43.770;4.008;2023-12-28T02:12:39;9.50;;;7.37;;
13973;SDS011;7060;43.770;4.008;2023-12-28T02:15:09;10.03;;;7.03;;
13973;SDS011;7060;43.770;4.008;2023-12-28T02:17:38;12.67;;;7.00;;
13973;SDS011;7060;43.770;4.008;2023-12-28T02:20:15;12.27;;;7.20;;
13973;SDS011;7060;43.770;4.008;2023-12-28T02:22:46;13.37;;;7.07;;
13973;SDS011;7060;43.770;4.008;2023-12-28T02:25:16;13.90;;;8.70;;
13973;SDS011;7060;43.770;4.008;2023-12-28T02:27:46;14.80;;;6.63;;
13973;SDS011;7060;43.770;4.008;2023-12-28T02:30:16;11.50;;;7.40;;
13973;SDS011;7060;43.770;4.008;2023-12-28T02:32:54;8.53;;;6.53;;
13973;SDS011;7060;43.770;4.008;2023-12-28T02:35:29;9.40;;;6.97;;
13973;SDS011;7060;43.770;4.008;2023-12-28T02:38:02;10.70;;;6.90;;
13973;SDS011;7060;43.770;4.008;2023-12-28T02:40:35;13.87;;;8.13;;
13973;SDS011;7060;43.770;4.008;2023-12-28T02:43:05;10.10;;;6.77;;
13973;SDS011;7060;43.770;4.008;2023-12-28T02:45:35;12.17;;;7.53;;
13973;SDS011;7060;43.770;4.008;2023-12-28T02:48:05;8.10;;;6.90;;
13973;SDS011;7060;43.770;4.008;2023-12-28T02:50:35;10.00;;;6.90;;
13973;SDS011;7060;43.770;4.008;2023-12-28T02:53:04;9.97;;;7.20;;
13973;SDS011;7060;43.770;4.008;2023-12-28T02:55:35;9.83;;;7.20;;
13973;SDS011;7060;43.770;4.008;2023-12-28T02:58:04;11.60;;;6.93;;
13973;SDS011;7060;43.770;4.008;2023-12-28T03:00:33;14.00;;;8.07;;
13973;SDS011;7060;43.770;4.008;2023-12-28T03:03:02;14.60;;;8.23;;
13973;SDS011;7060;43.770;4.008;2023-12-28T03:05:31;13.73;;;8.63;;
13973;SDS011;7060;43.770;4.008;2023-12-28T03:08:00;13.33;;;9.03;;
13973;SDS011;7060;43.770;4.008;2023-12-28T03:10:29;17.77;;;9.50;;
13973;SDS011;7060;43.770;4.008;2023-12-28T03:12:59;11.17;;;8.23;;
13973;SDS011;7060;43.770;4.008;2023-12-28T03:15:28;12.73;;;9.13;;
13973;SDS011;7060;43.770;4.008;2023-12-28T03:17:57;13.30;;;10.27;;
13973;SDS011;7060;43.770;4.008;2023-12-28T03:20:26;13.20;;;9.87;;
13973;SDS011;7060;43.770;4.008;2023-12-28T03:22:55;18.30;;;9.33;;
13973;SDS011;7060;43.770;4.008;2023-12-28T03:25:24;19.03;;;9.87;;
13973;SDS011;7060;43.770;4.008;2023-12-28T03:27:52;12.33;;;7.67;;
13973;SDS011;7060;43.770;4.008;2023-12-28T03:30:23;13.43;;;8.13;;
13973;SDS011;7060;43.770;4.008;2023-12-28T03:32:52;14.07;;;8.67;;
13973;SDS011;7060;43.770;4.008;2023-12-28T03:35:21;13.17;;;8.47;;
13973;SDS011;7060;43.770;4.008;2023-12-28T03:37:50;14.43;;;9.07;;
13973;SDS011;7060;43.770;4.008;2023-12-28T03:40:18;15.37;;;9.23;;
13973;SDS011;7060;43.770;4.008;2023-12-28T03:42:47;12.40;;;9.07;;
13973;SDS011;7060;43.770;4.008;2023-12-28T03:45:16;13.87;;;8.27;;
13973;SDS011;7060;43.770;4.008;2023-12-28T03:47:46;15.47;;;8.57;;
13973;SDS011;7060;43.770;4.008;2023-12-28T03:50:16;11.57;;;7.57;;
13973;SDS011;7060;43.770;4.008;2023-12-28T03:52:45;11.40;;;7.50;;
13973;SDS011;7060;43.770;4.008;2023-12-28T03:58:01;8.47;;;7.57;;
13973;SDS011;7060;43.770;4.008;2023-12-28T04:00:30;11.60;;;7.57;;
13973;SDS011;7060;43.770;4.008;2023-12-28T04:03:00;11.27;;;7.93;;
13973;SDS011;7060;43.770;4.008;2023-12-28T04:05:29;14.50;;;8.97;;
13973;SDS011;7060;43.770;4.008;2023-12-28T04:07:58;10.77;;;8.23;;
13973;SDS011;7060;43.770;4.008;2023-12-28T04:10:29;10.13;;;7.77;;
13973;SDS011;7060;43.770;4.008;2023-12-28T04:12:59;12.57;;;7.87;;
13973;SDS011;7060;43.770;4.008;2023-12-28T04:15:28;10.50;;;7.50;;
13973;SDS011;7060;43.770;4.008;2023-12-28T04:17:57;13.73;;;7.73;;
13973;SDS011;7060;43.770;4.008;2023-12-28T04:20:29;12.30;;;8.30;;
13973;SDS011;7060;43.770;4.008;2023-12-28T04:22:57;9.30;;;7.77;;
13973;SDS011;7060;43.770;4.008;2023-12-28T04:25:26;10.20;;;7.37;;
13973;SDS011;7060;43.770;4.008;2023-12-28T04:27:55;9.30;;;7.37;;
13973;SDS011;7060;43.770;4.008;2023-12-28T04:30:25;11.77;;;7.67;;
13973;SDS011;7060;43.770;4.008;2023-12-28T04:32:54;10.17;;;7.47;;
13973;SDS011;7060;43.770;4.008;2023-12-28T04:35:24;11.90;;;9.73;;
13973;SDS011;7060;43.770;4.008;2023-12-28T04:37:54;12.87;;;8.90;;
13973;SDS011;7060;43.770;4.008;2023-12-28T04:40:23;14.07;;;9.63;;
13973;SDS011;7060;43.770;4.008;2023-12-28T04:42:52;12.00;;;9.60;;
13973;SDS011;7060;43.770;4.008;2023-12-28T04:45:20;10.43;;;8.90;;
13973;SDS011;7060;43.770;4.008;2023-12-28T04:47:50;13.33;;;9.40;;
13973;SDS011;7060;43.770;4.008;2023-12-28T04:50:19;11.07;;;8.53;;
13973;SDS011;7060;43.770;4.008;2023-12-28T04:52:48;12.47;;;8.47;;
13973;SDS011;7060;43.770;4.008;2023-12-28T04:55:18;13.43;;;8.57;;
13973;SDS011;7060;43.770;4.008;2023-12-28T04:57:47;10.87;;;8.23;;
13973;SDS011;7060;43.770;4.008;2023-12-28T05:00:17;10.37;;;7.97;;
13973;SDS011;7060;43.770;4.008;2023-12-28T05:02:48;12.37;;;9.00;;
13973;SDS011;7060;43.770;4.008;2023-12-28T05:05:16;13.60;;;7.83;;
13973;SDS011;7060;43.770;4.008;2023-12-28T05:07:47;12.77;;;8.47;;
13973;SDS011;7060;43.770;4.008;2023-12-28T05:10:16;11.93;;;8.57;;
13973;SDS011;7060;43.770;4.008;2023-12-28T05:12:46;12.97;;;8.40;;
13973;SDS011;7060;43.770;4.008;2023-12-28T05:15:15;12.77;;;8.17;;
13973;SDS011;7060;43.770;4.008;2023-12-28T05:17:45;11.60;;;7.53;;
13973;SDS011;7060;43.770;4.008;2023-12-28T05:20:14;12.87;;;8.57;;
13973;SDS011;7060;43.770;4.008;2023-12-28T05:22:42;11.63;;;8.03;;
13973;SDS011;7060;43.770;4.008;2023-12-28T05:25:11;10.87;;;7.67;;
13973;SDS011;7060;43.770;4.008;2023-12-28T05:27:40;9.77;;;7.70;;
13973;SDS011;7060;43.770;4.008;2023-12-28T05:30:11;9.33;;;6.73;;
13973;SDS011;7060;43.770;4.008;2023-12-28T05:32:40;13.70;;;7.37;;
13973;SDS011;7060;43.770;4.008;2023-12-28T05:35:09;11.20;;;7.40;;
13973;SDS011;7060;43.770;4.008;2023-12-28T05:37:38;10.07;;;6.43;;
13973;SDS011;7060;43.770;4.008;2023-12-28T05:40:07;9.23;;;6.37;;
13973;SDS011;7060;43.770;4.008;2023-12-28T05:42:36;8.53;;;5.97;;
13973;SDS011;7060;43.770;4.008;2023-12-28T05:45:06;8.83;;;6.10;;
13973;SDS011;7060;43.770;4.008;2023-12-28T05:47:36;8.83;;;6.47;;
13973;SDS011;7060;43.770;4.008;2023-12-28T05:50:05;9.97;;;7.00;;
13973;SDS011;7060;43.770;4.008;2023-12-28T05:52:34;9.10;;;5.97;;
13973;SDS011;7060;43.770;4.008;2023-12-28T05:55:03;9.17;;;7.10;;
13973;SDS011;7060;43.770;4.008;2023-12-28T05:57:32;10.33;;;6.90;;
13973;SDS011;7060;43.770;4.008;2023-12-28T06:00:01;10.10;;;6.63;;
13973;SDS011;7060;43.770;4.008;2023-12-28T06:02:39;10.77;;;6.27;;
13973;SDS011;7060;43.770;4.008;2023-12-28T06:05:08;13.97;;;6.87;;
13973;SDS011;7060;43.770;4.008;2023-12-28T06:07:37;11.80;;;7.23;;
13973;SDS011;7060;43.770;4.008;2023-12-28T06:10:06;8.67;;;5.97;;
13973;SDS011;7060;43.770;4.008;2023-12-28T06:12:35;9.17;;;5.77;;
13973;SDS011;7060;43.770;4.008;2023-12-28T06:15:05;8.27;;;5.60;;
13973;SDS011;7060;43.770;4.008;2023-12-28T06:17:34;9.40;;;6.90;;
13973;SDS011;7060;43.770;4.008;2023-12-28T06:20:05;9.50;;;6.87;;
13973;SDS011;7060;43.770;4.008;2023-12-28T06:22:36;9.37;;;6.53;;
13973;SDS011;7060;43.770;4.008;2023-12-28T06:25:05;10.53;;;6.70;;
13973;SDS011;7060;43.770;4.008;2023-12-28T06:27:34;10.47;;;6.43;;
13973;SDS011;7060;43.770;4.008;2023-12-28T06:30:03;11.33;;;7.13;;
13973;SDS011;7060;43.770;4.008;2023-12-28T06:32:33;11.63;;;6.47;;
13973;SDS011;7060;43.770;4.008;2023-12-28T06:35:02;9.50;;;6.73;;
13973;SDS011;7060;43.770;4.008;2023-12-28T06:37:33;9.80;;;6.20;;
13973;SDS011;7060;43.770;4.008;2023-12-28T06:40:02;9.23;;;7.00;;
13973;SDS011;7060;43.770;4.008;2023-12-28T06:42:31;9.70;;;7.80;;
13973;SDS011;7060;43.770;4.008;2023-12-28T06:45:00;10.53;;;7.00;;
13973;SDS011;7060;43.770;4.008;2023-12-28T06:47:29;12.23;;;6.37;;
13973;SDS011;7060;43.770;4.008;2023-12-28T06:49:57;9.47;;;6.70;;
13973;SDS011;7060;43.770;4.008;2023-12-28T06:52:26;8.03;;;7.07;;
13973;SDS011;7060;43.770;4.008;2023-12-28T06:54:57;10.03;;;7.33;;
13973;SDS011;7060;43.770;4.008;2023-12-28T06:57:26;10.83;;;7.20;;
13973;SDS011;7060;43.770;4.008;2023-12-28T06:59:55;12.47;;;7.37;;
13973;SDS011;7060;43.770;4.008;2023-12-28T07:02:26;12.93;;;7.83;;
13973;SDS011;7060;43.770;4.008;2023-12-28T07:04:55;12.57;;;8.20;;
13973;SDS011;7060;43.770;4.008;2023-12-28T07:07:24;13.17;;;8.50;;
13973;SDS011;7060;43.770;4.008;2023-12-28T07:09:52;11.17;;;8.93;;
13973;SDS011;7060;43.770;4.008;2023-12-28T07:12:23;9.70;;;8.47;;
13973;SDS011;7060;43.770;4.008;2023-12-28T07:14:51;12.87;;;9.73;;
13973;SDS011;7060;43.770;4.008;2023-12-28T07:17:20;13.80;;;8.50;;
13973;SDS011;7060;43.770;4.008;2023-12-28T07:19:49;9.27;;;7.63;;
13973;SDS011;7060;43.770;4.008;2023-12-28T07:22:18;10.57;;;8.43;;
13973;SDS011;7060;43.770;4.008;2023-12-28T07:24:47;11.13;;;8.83;;
13973;SDS011;7060;43.770;4.008;2023-12-28T07:27:16;11.90;;;7.90;;
13973;SDS011;7060;43.770;4.008;2023-12-28T07:29:46;11.77;;;8.20;;
13973;SDS011;7060;43.770;4.008;2023-12-28T07:32:14;9.70;;;8.37;;
13973;SDS011;7060;43.770;4.008;2023-12-28T07:34:43;13.53;;;8.03;;
13973;SDS011;7060;43.770;4.008;2023-12-28T07:37:12;11.93;;;7.63;;
13973;SDS011;7060;43.770;4.008;2023-12-28T07:39:41;11.07;;;8.40;;
13973;SDS011;7060;43.770;4.008;2023-12-28T07:42:09;11.97;;;8.47;;
13973;SDS011;7060;43.770;4.008;2023-12-28T07:44:38;10.97;;;8.17;;
13973;SDS011;7060;43.770;4.008;2023-12-28T07:47:09;10.60;;;7.33;;
13973;SDS011;7060;43.770;4.008;2023-12-28T07:49:38;9.97;;;7.83;;
13973;SDS011;7060;43.770;4.008;2023-12-28T07:52:07;9.57;;;7.47;;
13973;SDS011;7060;43.770;4.008;2023-12-28T07:54:36;10.47;;;7.67;;
13973;SDS011;7060;43.770;4.008;2023-12-28T07:57:05;10.03;;;8.20;;
13973;SDS011;7060;43.770;4.008;2023-12-28T07:59:34;11.70;;;7.97;;
13973;SDS011;7060;43.770;4.008;2023-12-28T08:02:02;10.23;;;7.90;;
13973;SDS011;7060;43.770;4.008;2023-12-28T08:04:33;10.37;;;8.00;;
13973;SDS011;7060;43.770;4.008;2023-12-28T08:07:02;10.97;;;8.07;;
13973;SDS011;7060;43.770;4.008;2023-12-28T08:09:33;11.90;;;9.17;;
13973;SDS011;7060;43.770;4.008;2023-12-28T08:12:03;13.37;;;9.13;;
13973;SDS011;7060;43.770;4.008;2023-12-28T08:14:33;12.23;;;9.27;;
13973;SDS011;7060;43.770;4.008;2023-12-28T08:17:01;12.50;;;9.63;;
13973;SDS011;7060;43.770;4.008;2023-12-28T08:19:31;14.83;;;10.40;;
13973;SDS011;7060;43.770;4.008;2023-12-28T08:22:01;14.53;;;11.73;;
13973;SDS011;7060;43.770;4.008;2023-12-28T08:24:31;11.07;;;9.03;;
13973;SDS011;7060;43.770;4.008;2023-12-28T08:27:01;13.30;;;9.67;;
13973;SDS011;7060;43.770;4.008;2023-12-28T08:29:30;12.77;;;9.70;;
13973;SDS011;7060;43.770;4.008;2023-12-28T08:31:58;12.57;;;8.73;;
13973;SDS011;7060;43.770;4.008;2023-12-28T08:34:27;11.03;;;8.33;;
13973;SDS011;7060;43.770;4.008;2023-12-28T08:36:57;12.37;;;8.77;;
13973;SDS011;7060;43.770;4.008;2023-12-28T08:39:26;14.87;;;8.93;;
13973;SDS011;7060;43.770;4.008;2023-12-28T08:41:55;12.57;;;7.87;;
13973;SDS011;7060;43.770;4.008;2023-12-28T08:44:24;14.17;;;9.37;;
13973;SDS011;7060;43.770;4.008;2023-12-28T08:46:52;10.80;;;8.93;;
13973;SDS011;7060;43.770;4.008;2023-12-28T08:49:21;14.00;;;7.90;;
13973;SDS011;7060;43.770;4.008;2023-12-28T08:51:50;12.27;;;7.67;;
13973;SDS011;7060;43.770;4.008;2023-12-28T08:54:21;11.20;;;8.17;;
13973;SDS011;7060;43.770;4.008;2023-12-28T08:56:49;12.43;;;7.93;;
13973;SDS011;7060;43.770;4.008;2023-12-28T08:59:20;11.67;;;7.80;;
13973;SDS011;7060;43.770;4.008;2023-12-28T09:01:52;10.47;;;8.43;;
13973;SDS011;7060;43.770;4.008;2023-12-28T09:04:21;9.37;;;7.77;;
13973;SDS011;7060;43.770;4.008;2023-12-28T09:06:50;9.10;;;7.87;;
13973;SDS011;7060;43.770;4.008;2023-12-28T09:09:21;9.33;;;7.37;;
13973;SDS011;7060;43.770;4.008;2023-12-28T09:11:50;11.63;;;7.03;;
13973;SDS011;7060;43.770;4.008;2023-12-28T09:14:18;10.27;;;7.17;;
13973;SDS011;7060;43.770;4.008;2023-12-28T09:16:47;9.50;;;6.50;;
13973;SDS011;7060;43.770;4.008;2023-12-28T09:19:17;12.23;;;7.10;;
13973;SDS011;7060;43.770;4.008;2023-12-28T09:21:46;9.70;;;7.10;;
13973;SDS011;7060;43.770;4.008;2023-12-28T09:24:15;8.77;;;6.27;;
13973;SDS011;7060;43.770;4.008;2023-12-28T09:26:47;8.03;;;6.33;;
13973;SDS011;7060;43.770;4.008;2023-12-28T09:29:15;14.17;;;6.63;;
13973;SDS011;7060;43.770;4.008;2023-12-28T09:31:45;7.33;;;5.70;;
13973;SDS011;7060;43.770;4.008;2023-12-28T09:34:15;7.47;;;5.37;;
13973;SDS011;7060;43.770;4.008;2023-12-28T09:36:44;7.83;;;6.13;;
13973;SDS011;7060;43.770;4.008;2023-12-28T09:39:12;7.23;;;6.23;;
13973;SDS011;7060;43.770;4.008;2023-12-28T09:41:43;7.50;;;5.70;;
13973;SDS011;7060;43.770;4.008;2023-12-28T09:44:22;10.40;;;6.80;;
13973;SDS011;7060;43.770;4.008;2023-12-28T09:46:53;7.63;;;6.10;;
13973;SDS011;7060;43.770;4.008;2023-12-28T09:49:22;7.83;;;5.67;;
13973;SDS011;7060;43.770;4.008;2023-12-28T09:51:51;9.77;;;6.10;;
13973;SDS011;7060;43.770;4.008;2023-12-28T09:54:20;7.70;;;6.37;;
13973;SDS011;7060;43.770;4.008;2023-12-28T09:56:51;10.33;;;6.33;;
13973;SDS011;7060;43.770;4.008;2023-12-28T09:59:20;9.00;;;6.13;;
13973;SDS011;7060;43.770;4.008;2023-12-28T10:01:50;11.23;;;7.03;;
13973;SDS011;7060;43.770;4.008;2023-12-28T10:04:18;8.10;;;6.75;;
13973;SDS011;7060;43.770;4.008;2023-12-28T10:06:48;7.50;;;6.30;;
13973;SDS011;7060;43.770;4.008;2023-12-28T10:09:18;8.20;;;6.20;;
13973;SDS011;7060;43.770;4.008;2023-12-28T10:11:46;9.17;;;5.77;;
13973;SDS011;7060;43.770;4.008;2023-12-28T10:14:17;7.03;;;5.93;;
13973;SDS011;7060;43.770;4.008;2023-12-28T10:16:47;7.80;;;5.93;;
13973;SDS011;7060;43.770;4.008;2023-12-28T10:19:21;10.77;;;6.57;;
13973;SDS011;7060;43.770;4.008;2023-12-28T10:21:51;6.50;;;5.53;;
13973;SDS011;7060;43.770;4.008;2023-12-28T10:24:20;7.47;;;5.70;;
13973;SDS011;7060;43.770;4.008;2023-12-28T10:26:49;18.77;;;6.17;;
13973;SDS011;7060;43.770;4.008;2023-12-28T10:29:20;10.03;;;6.37;;
13973;SDS011;7060;43.770;4.008;2023-12-28T10:31:49;10.40;;;6.73;;
13973;SDS011;7060;43.770;4.008;2023-12-28T10:34:22;7.30;;;5.87;;
13973;SDS011;7060;43.770;4.008;2023-12-28T10:36:52;9.13;;;6.20;;
13973;SDS011;7060;43.770;4.008;2023-12-28T10:39:23;10.17;;;6.87;;
13973;SDS011;7060;43.770;4.008;2023-12-28T10:41:55;10.83;;;6.30;;
13973;SDS011;7060;43.770;4.008;2023-12-28T10:44:28;9.40;;;6.43;;
13973;SDS011;7060;43.770;4.008;2023-12-28T10:47:03;11.23;;;6.67;;
13973;SDS011;7060;43.770;4.008;2023-12-28T10:49:37;27.50;;;7.23;;
13973;SDS011;7060;43.770;4.008;2023-12-28T10:52:11;11.30;;;7.13;;
13973;SDS011;7060;43.770;4.008;2023-12-28T10:54:44;7.80;;;6.03;;
13973;SDS011;7060;43.770;4.008;2023-12-28T10:57:22;14.87;;;7.87;;
13973;SDS011;7060;43.770;4.008;2023-12-28T10:59:58;8.47;;;5.83;;
13973;SDS011;7060;43.770;4.008;2023-12-28T11:02:37;9.50;;;6.73;;
13973;SDS011;7060;43.770;4.008;2023-12-28T11:05:10;28.20;;;23.97;;
13973;SDS011;7060;43.770;4.008;2023-12-28T11:07:41;37.47;;;31.07;;
13973;SDS011;7060;43.770;4.008;2023-12-28T11:10:11;13.63;;;9.57;;
13973;SDS011;7060;43.770;4.008;2023-12-28T11:12:42;10.80;;;6.73;;
13973;SDS011;7060;43.770;4.008;2023-12-28T11:15:14;8.43;;;6.27;;
13973;SDS011;7060;43.770;4.008;2023-12-28T11:17:43;7.90;;;5.50;;
13973;SDS011;7060;43.770;4.008;2023-12-28T11:20:12;10.23;;;5.77;;
13973;SDS011;7060;43.770;4.008;2023-12-28T11:22:42;8.47;;;6.10;;
13973;SDS011;7060;43.770;4.008;2023-12-28T11:25:14;7.77;;;6.03;;
13973;SDS011;7060;43.770;4.008;2023-12-28T11:27:45;7.70;;;6.30;;
13973;SDS011;7060;43.770;4.008;2023-12-28T11:30:16;8.53;;;5.70;;
13973;SDS011;7060;43.770;4.008;2023-12-28T11:32:45;8.60;;;6.23;;
13973;SDS011;7060;43.770;4.008;2023-12-28T11:35:13;7.50;;;5.80;;
13973;SDS011;7060;43.770;4.008;2023-12-28T11:37:44;9.40;;;5.57;;
13973;SDS011;7060;43.770;4.008;2023-12-28T11:40:16;9.77;;;5.97;;
13973;SDS011;7060;43.770;4.008;2023-12-28T11:42:49;7.87;;;6.13;;
13973;SDS011;7060;43.770;4.008;2023-12-28T11:45:21;9.80;;;6.23;;
13973;SDS011;7060;43.770;4.008;2023-12-28T11:47:58;8.80;;;5.90;;
13973;SDS011;7060;43.770;4.008;2023-12-28T11:50:28;8.07;;;6.30;;
13973;SDS011;7060;43.770;4.008;2023-12-28T11:52:57;9.47;;;6.23;;
13973;SDS011;7060;43.770;4.008;2023-12-28T11:55:26;8.47;;;6.07;;
13973;SDS011;7060;43.770;4.008;2023-12-28T11:57:55;8.90;;;5.27;;
13973;SDS011;7060;43.770;4.008;2023-12-28T12:00:25;9.40;;;6.00;;
13973;SDS011;7060;43.770;4.008;2023-12-28T12:02:54;8.90;;;5.50;;
13973;SDS011;7060;43.770;4.008;2023-12-28T12:05:24;8.27;;;5.33;;
13973;SDS011;7060;43.770;4.008;2023-12-28T12:07:53;8.27;;;5.40;;
13973;SDS011;7060;43.770;4.008;2023-12-28T12:10:23;6.67;;;5.03;;
13973;SDS011;7060;43.770;4.008;2023-12-28T12:12:52;8.30;;;6.30;;
13973;SDS011;7060;43.770;4.008;2023-12-28T12:15:21;8.97;;;5.80;;
13973;SDS011;7060;43.770;4.008;2023-12-28T12:17:52;8.47;;;6.20;;
13973;SDS011;7060;43.770;4.008;2023-12-28T12:20:21;9.47;;;6.03;;
13973;SDS011;7060;43.770;4.008;2023-12-28T12:22:49;6.43;;;5.27;;
13973;SDS011;7060;43.770;4.008;2023-12-28T12:25:17;8.10;;;6.67;;
13973;SDS011;7060;43.770;4.008;2023-12-28T12:27:46;8.43;;;6.03;;
13973;SDS011;7060;43.770;4.008;2023-12-28T12:30:15;8.43;;;5.57;;
13973;SDS011;7060;43.770;4.008;2023-12-28T12:32:44;8.50;;;5.80;;
13973;SDS011;7060;43.770;4.008;2023-12-28T12:35:15;8.63;;;5.90;;
13973;SDS011;7060;43.770;4.008;2023-12-28T12:37:46;12.37;;;6.10;;
13973;SDS011;7060;43.770;4.008;2023-12-28T12:40:16;8.63;;;5.37;;
13973;SDS011;7060;43.770;4.008;2023-12-28T12:42:53;9.77;;;6.10;;
13973;SDS011;7060;43.770;4.008;2023-12-28T12:45:22;9.03;;;6.30;;
13973;SDS011;7060;43.770;4.008;2023-12-28T12:47:52;7.10;;;5.73;;
13973;SDS011;7060;43.770;4.008;2023-12-28T12:50:22;9.13;;;5.53;;
13973;SDS011;7060;43.770;4.008;2023-12-28T12:52:51;8.18;;;6.30;;
13973;SDS011;7060;43.770;4.008;2023-12-28T12:55:19;7.50;;;5.97;;
13973;SDS011;7060;43.770;4.008;2023-12-28T12:57:49;9.77;;;6.07;;
13973;SDS011;7060;43.770;4.008;2023-12-28T13:00:22;10.63;;;7.17;;
13973;SDS011;7060;43.770;4.008;2023-12-28T13:02:51;11.60;;;7.50;;
13973;SDS011;7060;43.770;4.008;2023-12-28T13:05:25;9.50;;;6.67;;
13973;SDS011;7060;43.770;4.008;2023-12-28T13:07:54;11.10;;;5.97;;
13973;SDS011;7060;43.770;4.008;2023-12-28T13:10:22;9.17;;;5.50;;
13973;SDS011;7060;43.770;4.008;2023-12-28T13:12:51;10.87;;;5.30;;
13973;SDS011;7060;43.770;4.008;2023-12-28T13:15:20;6.93;;;4.90;;
13973;SDS011;7060;43.770;4.008;2023-12-28T13:17:49;7.60;;;5.63;;
13973;SDS011;7060;43.770;4.008;2023-12-28T13:20:17;6.57;;;5.03;;
13973;SDS011;7060;43.770;4.008;2023-12-28T13:22:48;6.87;;;5.23;;
13973;SDS011;7060;43.770;4.008;2023-12-28T13:25:17;6.40;;;4.90;;
13973;SDS011;7060;43.770;4.008;2023-12-28T13:27:46;7.77;;;5.27;;
13973;SDS011;7060;43.770;4.008;2023-12-28T13:30:16;8.70;;;4.97;;
13973;SDS011;7060;43.770;4.008;2023-12-28T13:32:45;8.50;;;5.67;;
13973;SDS011;7060;43.770;4.008;2023-12-28T13:35:14;6.97;;;5.40;;
13973;SDS011;7060;43.770;4.008;2023-12-28T13:37:42;7.93;;;5.03;;
13973;SDS011;7060;43.770;4.008;2023-12-28T13:40:15;7.13;;;5.13;;
13973;SDS011;7060;43.770;4.008;2023-12-28T13:42:46;9.77;;;5.30;;
13973;SDS011;7060;43.770;4.008;2023-12-28T13:45:15;7.83;;;6.00;;
13973;SDS011;7060;43.770;4.008;2023-12-28T13:47:43;9.33;;;5.83;;
13973;SDS011;7060;43.770;4.008;2023-12-28T13:50:12;6.17;;;5.20;;
13973;SDS011;7060;43.770;4.008;2023-12-28T13:52:41;8.20;;;5.53;;
13973;SDS011;7060;43.770;4.008;2023-12-28T13:55:10;8.03;;;4.90;;
13973;SDS011;7060;43.770;4.008;2023-12-28T13:57:40;6.53;;;4.67;;
13973;SDS011;7060;43.770;4.008;2023-12-28T14:00:09;9.67;;;5.50;;
13973;SDS011;7060;43.770;4.008;2023-12-28T14:02:40;6.27;;;4.83;;
13973;SDS011;7060;43.770;4.008;2023-12-28T14:05:09;8.17;;;5.43;;
13973;SDS011;7060;43.770;4.008;2023-12-28T14:07:38;10.20;;;5.23;;
13973;SDS011;7060;43.770;4.008;2023-12-28T14:10:07;10.70;;;5.03;;
13973;SDS011;7060;43.770;4.008;2023-12-28T14:12:36;5.63;;;4.73;;
13973;SDS011;7060;43.770;4.008;2023-12-28T14:15:07;9.20;;;5.43;;
13973;SDS011;7060;43.770;4.008;2023-12-28T14:17:36;9.03;;;5.33;;
13973;SDS011;7060;43.770;4.008;2023-12-28T14:20:06;6.93;;;5.43;;
13973;SDS011;7060;43.770;4.008;2023-12-28T14:22:38;11.87;;;6.20;;
13973;SDS011;7060;43.770;4.008;2023-12-28T14:25:08;7.43;;;5.30;;
13973;SDS011;7060;43.770;4.008;2023-12-28T14:27:39;7.90;;;5.40;;
13973;SDS011;7060;43.770;4.008;2023-12-28T14:30:10;26.17;;;22.13;;
13973;SDS011;7060;43.770;4.008;2023-12-28T14:32:41;38.50;;;32.47;;
13973;SDS011;7060;43.770;4.008;2023-12-28T14:35:11;33.23;;;26.87;;
13973;SDS011;7060;43.770;4.008;2023-12-28T14:37:42;26.23;;;23.07;;
13973;SDS011;7060;43.770;4.008;2023-12-28T14:40:12;14.20;;;8.27;;
13973;SDS011;7060;43.770;4.008;2023-12-28T14:42:41;9.47;;;7.30;;
13973;SDS011;7060;43.770;4.008;2023-12-28T14:45:11;8.33;;;6.77;;
13973;SDS011;7060;43.770;4.008;2023-12-28T14:47:40;9.00;;;6.63;;
13973;SDS011;7060;43.770;4.008;2023-12-28T14:50:08;9.27;;;5.63;;
13973;SDS011;7060;43.770;4.008;2023-12-28T14:52:37;7.27;;;5.37;;
13973;SDS011;7060;43.770;4.008;2023-12-28T14:55:09;6.60;;;5.57;;
13973;SDS011;7060;43.770;4.008;2023-12-28T14:57:39;7.33;;;5.10;;
13973;SDS011;7060;43.770;4.008;2023-12-28T15:00:08;5.33;;;4.83;;
13973;SDS011;7060;43.770;4.008;2023-12-28T15:02:38;7.77;;;5.77;;
13973;SDS011;7060;43.770;4.008;2023-12-28T15:05:07;11.03;;;6.73;;
13973;SDS011;7060;43.770;4.008;2023-12-28T15:07:39;11.20;;;7.03;;